Time;durP1;ratioP1;P1;durP2;ratioP2;P2;SDS_P1;SDS_P2;PMS_P1;PMS_P2;Temp;Humidity;BMP_temperature;BMP_pressure;BME280_temperature;BME280_humidity;BME280_pressure;Samples;Min_cycle;Max_cycle;Signal;HPM_P1;HPM_P2
2022/02/23 00:01:04;;;;;;;5.50;1.15;;;7.00;91.10;;;;;;5061652;28;20032;-84
2022/02/23 00:03:33;;;;;;;6.70;1.40;;;7.00;91.50;;;;;;5061843;28;20032;-83
2022/02/23 00:05:59;;;;;;;3.22;1.25;;;7.00;91.70;;;;;;5062747;28;20082;-85
2022/02/23 00:08:25;;;;;;;4.97;0.93;;;7.00;91.90;;;;;;5062722;28;20021;-85
2022/02/23 00:10:51;;;;;;;5.70;1.13;;;7.00;92.10;;;;;;5065150;28;20028;-84
2022/02/23 00:13:16;;;;;;;4.85;1.40;;;6.90;92.40;;;;;;5070240;28;20453;-83
2022/02/23 00:15:42;;;;;;;4.63;1.40;;;6.90;92.50;;;;;;5069700;28;20025;-82
2022/02/23 00:18:12;;;;;;;4.63;0.93;;;6.90;92.70;;;;;;5076145;28;20036;-81
2022/02/23 00:20:39;;;;;;;4.53;1.10;;;6.90;92.60;;;;;;5074460;28;20029;-83
2022/02/23 00:23:05;;;;;;;4.70;1.00;;;7.00;92.60;;;;;;5068781;28;20052;-82
2022/02/23 00:25:30;;;;;;;4.80;1.02;;;6.90;92.80;;;;;;5072313;28;20327;-83
2022/02/23 00:27:56;;;;;;;5.18;0.98;;;6.90;92.90;;;;;;5069082;28;20031;-82
2022/02/23 00:30:22;;;;;;;3.60;1.33;;;6.90;92.90;;;;;;5065928;28;20113;-82
2022/02/23 00:32:48;;;;;;;4.32;1.23;;;6.90;93.20;;;;;;5065323;28;20029;-83
2022/02/23 00:35:13;;;;;;;7.30;1.33;;;6.90;93.30;;;;;;5063237;28;20036;-82
2022/02/23 00:37:39;;;;;;;1.52;0.77;;;6.90;93.40;;;;;;5059642;28;20090;-82
2022/02/23 00:40:05;;;;;;;5.97;1.45;;;6.90;93.80;;;;;;5060201;28;20029;-83
2022/02/23 00:42:31;;;;;;;5.63;1.00;;;6.90;94.40;;;;;;5063021;28;20046;-84
2022/02/23 00:45:00;;;;;;;3.65;0.95;;;6.80;95.10;;;;;;5060631;28;20044;-84
2022/02/23 00:47:26;;;;;;;3.47;0.80;;;6.70;95.70;;;;;;5060720;28;20091;-84
2022/02/23 00:49:51;;;;;;;4.15;1.13;;;6.60;96.30;;;;;;5060906;28;20509;-84
2022/02/23 00:52:17;;;;;;;5.28;1.02;;;6.50;96.60;;;;;;5059337;28;20025;-84
2022/02/23 00:54:43;;;;;;;5.97;1.25;;;6.50;96.80;;;;;;5059511;28;20032;-83
2022/02/23 00:57:09;;;;;;;4.38;1.20;;;6.50;96.80;;;;;;5059401;28;20028;-83
2022/02/23 00:59:36;;;;;;;1.35;0.70;;;6.60;96.40;;;;;;5060423;28;20032;-83
2022/02/23 01:02:05;;;;;;;4.93;0.77;;;6.60;96.70;;;;;;5047723;28;20040;-83
2022/02/23 01:04:31;;;;;;;3.85;0.98;;;6.60;96.70;;;;;;5069278;28;20025;-82
2022/02/23 01:06:59;;;;;;;3.03;0.80;;;6.60;96.40;;;;;;5063610;28;20064;-84
2022/02/23 01:09:25;;;;;;;3.17;0.90;;;6.60;96.50;;;;;;5071477;28;20020;-81
2022/02/23 01:11:53;;;;;;;4.40;0.73;;;6.70;96.30;;;;;;5076612;28;20029;-82
2022/02/23 01:14:18;;;;;;;3.25;0.80;;;6.70;96.30;;;;;;5076135;28;20033;-82
2022/02/23 01:16:45;;;;;;;1.33;0.65;;;6.70;96.10;;;;;;5072789;28;20059;-81
2022/02/23 01:19:11;;;;;;;4.53;1.00;;;6.70;96.10;;;;;;5075100;28;20509;-81
2022/02/23 01:21:37;;;;;;;4.25;1.05;;;6.80;95.90;;;;;;5075406;28;20037;-84
2022/02/23 01:24:03;;;;;;;7.22;1.40;;;6.80;95.90;;;;;;5071218;28;20066;-83
2022/02/23 01:26:29;;;;;;;5.25;1.20;;;6.80;95.70;;;;;;5067339;28;20021;-84
2022/02/23 01:28:55;;;;;;;7.07;1.60;;;6.90;95.80;;;;;;5061040;28;20094;-85
2022/02/23 01:31:21;;;;;;;1.73;0.63;;;6.80;95.70;;;;;;5062319;28;20208;-84
2022/02/23 01:33:47;;;;;;;2.72;0.65;;;6.90;95.70;;;;;;5061278;28;20426;-84
2022/02/23 01:36:12;;;;;;;4.25;0.75;;;6.90;95.70;;;;;;5060967;28;20032;-84
2022/02/23 01:38:38;;;;;;;2.63;0.73;;;6.90;95.30;;;;;;5059163;28;20393;-83
2022/02/23 01:41:04;;;;;;;6.90;1.05;;;6.90;95.30;;;;;;5058418;28;20032;-83
2022/02/23 01:43:30;;;;;;;4.00;0.73;;;6.90;95.40;;;;;;5059489;28;20092;-83
2022/02/23 01:45:56;;;;;;;3.67;0.95;;;6.90;95.40;;;;;;5058162;28;20017;-83
2022/02/23 01:48:22;;;;;;;3.85;1.00;;;7.00;95.30;;;;;;5060713;28;20036;-84
2022/02/23 01:50:48;;;;;;;3.22;1.08;;;7.00;95.20;;;;;;5060663;28;20021;-84
2022/02/23 01:53:14;;;;;;;2.47;0.73;;;7.00;94.90;;;;;;5061724;28;20112;-84
2022/02/23 01:55:40;;;;;;;5.45;0.90;;;7.10;94.70;;;;;;5063497;28;20033;-84
2022/02/23 01:58:06;;;;;;;2.65;0.82;;;7.10;94.70;;;;;;5059356;28;20117;-84
2022/02/23 02:00:32;;;;;;;1.83;0.90;;;7.10;94.90;;;;;;5066569;28;20096;-84
2022/02/23 02:02:58;;;;;;;1.90;0.55;;;7.10;95.10;;;;;;5068212;28;20056;-82
2022/02/23 02:05:24;;;;;;;5.13;0.60;;;7.10;95.40;;;;;;5066089;28;20033;-85
2022/02/23 02:07:50;;;;;;;4.72;0.90;;;7.00;95.90;;;;;;5061973;28;20035;-85
2022/02/23 02:10:15;;;;;;;2.30;0.77;;;7.00;96.20;;;;;;5064533;28;20021;-82
2022/02/23 02:12:41;;;;;;;3.58;0.80;;;6.90;96.70;;;;;;5070923;28;20029;-80
2022/02/23 02:15:08;;;;;;;3.78;1.00;;;6.80;97.30;;;;;;5074755;28;20032;-81
2022/02/23 02:17:34;;;;;;;3.30;0.80;;;6.70;97.80;;;;;;5059788;28;20017;-83
2022/02/23 02:20:00;;;;;;;1.85;0.77;;;6.70;97.80;;;;;;5060301;28;20075;-84
2022/02/23 02:22:28;;;;;;;3.33;0.70;;;6.80;97.90;;;;;;5054679;28;20028;-83
2022/02/23 02:24:59;;;;;;;1.50;0.60;;;6.70;97.90;;;;;;5054923;28;20024;-83
2022/02/23 02:27:25;;;;;;;3.90;0.70;;;6.80;97.70;;;;;;5056764;28;20501;-84
2022/02/23 02:29:51;;;;;;;0.85;0.35;;;6.80;97.90;;;;;;5056442;28;20033;-82
2022/02/23 02:32:17;;;;;;;2.45;0.65;;;6.80;98.00;;;;;;5063928;28;20144;-83
2022/02/23 02:34:44;;;;;;;2.92;0.70;;;6.80;98.20;;;;;;5058699;28;20029;-83
2022/02/23 02:37:10;;;;;;;3.08;0.60;;;6.80;98.30;;;;;;5067336;28;20082;-83
2022/02/23 02:39:36;;;;;;;3.05;0.70;;;6.80;98.30;;;;;;5064243;28;20020;-84
2022/02/23 02:42:03;;;;;;;4.35;0.80;;;6.90;98.00;;;;;;5059234;28;20032;-83
2022/02/23 02:44:29;;;;;;;2.50;0.73;;;6.90;98.10;;;;;;5065160;28;20029;-83
2022/02/23 02:46:55;;;;;;;4.13;0.98;;;6.90;98.30;;;;;;5057115;28;20021;-84
2022/02/23 02:49:21;;;;;;;4.30;1.00;;;6.90;98.10;;;;;;5056684;28;20084;-84
2022/02/23 02:51:49;;;;;;;4.45;0.90;;;6.90;98.20;;;;;;5057249;28;20032;-84
2022/02/23 02:54:16;;;;;;;2.30;0.77;;;6.90;98.10;;;;;;5059134;28;20024;-84
2022/02/23 02:56:42;;;;;;;1.75;0.63;;;7.00;98.10;;;;;;5058569;28;20497;-82
2022/02/23 02:59:08;;;;;;;2.13;0.70;;;6.90;98.00;;;;;;5057979;28;20021;-82
2022/02/23 03:01:34;;;;;;;1.90;1.02;;;7.00;97.60;;;;;;5056963;28;20079;-81
2022/02/23 03:04:01;;;;;;;3.75;0.80;;;7.00;97.50;;;;;;5056124;28;20075;-81
2022/02/23 03:06:27;;;;;;;2.55;0.50;;;7.00;97.60;;;;;;5056527;28;20017;-80
2022/02/23 03:08:54;;;;;;;3.65;0.90;;;7.00;97.40;;;;;;5057071;28;20035;-81
2022/02/23 03:11:20;;;;;;;3.47;0.80;;;7.00;97.20;;;;;;5057161;28;20013;-81
2022/02/23 03:13:46;;;;;;;1.80;0.70;;;7.00;97.30;;;;;;5056569;28;20017;-81
2022/02/23 03:16:14;;;;;;;1.85;0.70;;;7.10;97.30;;;;;;5053842;28;20033;-81
2022/02/23 03:18:41;;;;;;;2.75;0.90;;;7.10;97.40;;;;;;5056364;28;20020;-81
2022/02/23 03:21:06;;;;;;;4.95;0.80;;;7.10;97.20;;;;;;5055432;28;20094;-81
2022/02/23 03:23:32;;;;;;;1.40;0.50;;;7.20;97.10;;;;;;5056233;28;20025;-81
2022/02/23 03:25:58;;;;;;;0.73;0.50;;;7.10;97.30;;;;;;5061138;28;20033;-81
2022/02/23 03:28:24;;;;;;;1.98;0.60;;;7.10;97.40;;;;;;5058118;28;20057;-81
2022/02/23 03:30:50;;;;;;;2.53;0.50;;;7.10;97.30;;;;;;5056034;28;20445;-81
2022/02/23 03:33:16;;;;;;;3.40;0.98;;;7.10;97.30;;;;;;5056597;28;20053;-81
2022/02/23 03:35:44;;;;;;;1.42;0.65;;;7.10;97.20;;;;;;5059725;28;20073;-80
2022/02/23 03:38:10;;;;;;;2.65;0.75;;;7.10;97.20;;;;;;5059056;28;20029;-80
2022/02/23 03:40:38;;;;;;;4.40;0.82;;;7.10;97.30;;;;;;5055563;28;20021;-81
2022/02/23 03:43:05;;;;;;;1.35;0.45;;;7.10;97.20;;;;;;5057096;28;20027;-81
2022/02/23 03:45:31;;;;;;;3.28;0.80;;;7.10;97.50;;;;;;5057207;28;20132;-81
2022/02/23 03:47:58;;;;;;;2.67;0.60;;;7.00;97.60;;;;;;5058829;28;20013;-81
2022/02/23 03:50:23;;;;;;;1.67;0.98;;;7.00;97.60;;;;;;5056486;28;20104;-81
2022/02/23 03:52:49;;;;;;;3.78;0.68;;;7.00;97.80;;;;;;5056318;28;20024;-81
2022/02/23 03:55:15;;;;;;;1.75;0.45;;;7.00;97.90;;;;;;5057003;28;20025;-81
2022/02/23 03:57:42;;;;;;;2.53;1.00;;;7.00;97.90;;;;;;5055617;28;20096;-80
2022/02/23 04:00:13;;;;;;;4.78;0.80;;;7.00;98.20;;;;;;5054684;28;20168;-82
2022/02/23 04:02:38;;;;;;;1.83;0.60;;;7.00;98.80;;;;;;5055592;28;20021;-80
2022/02/23 04:05:06;;;;;;;2.83;0.50;;;7.00;99.30;;;;;;5059519;28;20032;-80
2022/02/23 04:07:35;;;;;;;2.67;0.77;;;7.00;99.60;;;;;;5058611;28;20037;-81
2022/02/23 04:10:02;;;;;;;1.73;0.43;;;6.80;99.50;;;;;;5056057;28;20033;-81
2022/02/23 04:12:28;;;;;;;6.40;1.08;;;6.20;99.90;;;;;;5055413;28;20022;-81
2022/02/23 04:14:54;;;;;;;8.13;1.17;;;5.70;99.90;;;;;;5055718;28;20029;-80
2022/02/23 04:17:20;;;;;;;5.18;1.20;;;5.40;99.90;;;;;;5054664;28;20363;-82
2022/02/23 04:19:46;;;;;;;4.40;0.80;;;5.10;99.90;;;;;;5038155;28;20037;-81
2022/02/23 04:22:11;;;;;;;3.13;0.40;;;4.90;99.90;;;;;;5035399;28;20135;-82
2022/02/23 04:24:37;;;;;;;4.07;0.70;;;4.80;99.90;;;;;;5035665;28;20109;-81
2022/02/23 04:27:04;;;;;;;2.45;0.50;;;4.70;99.90;;;;;;5039009;28;20072;-82
2022/02/23 04:29:30;;;;;;;2.80;0.63;;;4.70;99.90;;;;;;5041145;28;20124;-81
2022/02/23 04:31:56;;;;;;;3.17;1.23;;;4.60;99.90;;;;;;5041052;28;20109;-82
2022/02/23 04:34:23;;;;;;;2.75;0.57;;;4.60;99.90;;;;;;5038920;28;20021;-81
2022/02/23 04:36:49;;;;;;;3.03;0.63;;;4.60;99.90;;;;;;5038433;28;20060;-81
2022/02/23 04:39:15;;;;;;;3.88;0.80;;;4.60;99.90;;;;;;5036023;28;20034;-82
2022/02/23 04:41:41;;;;;;;3.80;0.70;;;4.60;99.90;;;;;;5037776;28;20414;-82
2022/02/23 04:44:07;;;;;;;1.67;0.40;;;4.50;99.90;;;;;;5041730;28;20041;-82
2022/02/23 04:46:34;;;;;;;2.10;0.52;;;4.50;99.90;;;;;;5055360;28;20033;-82
2022/02/23 04:49:00;;;;;;;2.83;0.50;;;4.50;99.90;;;;;;5063549;28;20056;-82
2022/02/23 04:51:29;;;;;;;2.22;0.47;;;4.50;99.90;;;;;;5067542;28;20501;-81
2022/02/23 04:53:55;;;;;;;5.18;0.80;;;4.50;99.90;;;;;;5078011;28;20091;-81
2022/02/23 04:56:21;;;;;;;6.50;0.80;;;4.40;99.90;;;;;;5074670;28;20093;-81
2022/02/23 04:58:47;;;;;;;3.40;0.63;;;4.50;99.90;;;;;;5065910;28;20021;-82
2022/02/23 05:01:13;;;;;;;1.05;0.40;;;4.40;99.90;;;;;;5066418;28;20025;-82
2022/02/23 05:03:38;;;;;;;2.08;0.55;;;4.40;99.90;;;;;;5068134;28;20120;-82
2022/02/23 05:06:05;;;;;;;2.72;0.57;;;4.50;99.90;;;;;;5060598;28;20413;-83
2022/02/23 05:08:31;;;;;;;1.42;0.50;;;4.50;99.90;;;;;;5063098;28;20448;-82
2022/02/23 05:10:57;;;;;;;3.38;0.65;;;4.50;99.90;;;;;;5060610;28;20028;-83
2022/02/23 05:13:27;;;;;;;5.20;0.60;;;4.50;99.90;;;;;;5061995;28;20025;-83
2022/02/23 05:15:58;;;;;;;4.25;0.60;;;4.50;99.90;;;;;;5057989;28;20078;-83
2022/02/23 05:18:26;;;;;;;2.03;1.13;;;4.50;99.90;;;;;;5061605;28;20147;-82
2022/02/23 05:20:53;;;;;;;4.72;0.50;;;4.60;99.90;;;;;;5062232;28;20036;-83
2022/02/23 05:23:19;;;;;;;3.90;1.33;;;4.60;99.90;;;;;;5065994;28;20516;-83
2022/02/23 05:25:45;;;;;;;4.60;0.60;;;4.60;99.90;;;;;;5069331;28;20025;-83
2022/02/23 05:28:10;;;;;;;3.75;0.93;;;4.60;99.90;;;;;;5068331;28;20043;-83
2022/02/23 05:30:36;;;;;;;2.83;0.65;;;4.60;99.90;;;;;;5062724;28;20036;-83
2022/02/23 05:33:02;;;;;;;3.03;0.60;;;4.60;99.90;;;;;;5060890;28;20143;-83
2022/02/23 05:35:28;;;;;;;2.72;0.60;;;4.60;99.90;;;;;;5065439;28;20508;-82
2022/02/23 05:37:53;;;;;;;3.53;0.60;;;4.60;99.90;;;;;;5069938;28;20040;-82
2022/02/23 05:40:20;;;;;;;1.65;0.52;;;4.60;99.90;;;;;;5061016;28;20036;-83
2022/02/23 05:42:47;;;;;;;5.43;0.68;;;4.60;99.90;;;;;;5064394;28;20012;-83
2022/02/23 05:45:12;;;;;;;2.88;0.60;;;4.60;99.90;;;;;;5068406;28;20025;-83
2022/02/23 05:47:38;;;;;;;2.08;1.00;;;4.60;99.90;;;;;;5065979;28;20349;-82
2022/02/23 05:50:04;;;;;;;2.85;0.73;;;4.70;99.90;;;;;;5062856;28;20115;-82
2022/02/23 05:52:30;;;;;;;2.25;0.60;;;4.70;99.90;;;;;;5065276;28;20027;-85
2022/02/23 05:54:56;;;;;;;4.20;1.00;;;4.70;99.90;;;;;;5058964;28;20444;-83
2022/02/23 05:57:22;;;;;;;3.45;0.60;;;4.70;99.90;;;;;;5060051;28;20032;-83
2022/02/23 05:59:48;;;;;;;3.20;0.98;;;4.60;99.90;;;;;;5061847;28;20025;-83
2022/02/23 06:02:15;;;;;;;3.80;0.57;;;4.70;99.90;;;;;;5061594;28;20029;-84
2022/02/23 06:04:41;;;;;;;4.75;0.93;;;4.70;99.90;;;;;;5062442;28;20021;-83
2022/02/23 06:07:07;;;;;;;1.95;0.90;;;4.70;99.90;;;;;;5062930;28;20017;-83
2022/02/23 06:09:33;;;;;;;4.65;0.73;;;4.70;99.90;;;;;;5061670;28;20082;-83
2022/02/23 06:12:00;;;;;;;1.35;0.40;;;4.60;99.90;;;;;;5061716;28;20449;-82
2022/02/23 06:14:27;;;;;;;2.25;0.70;;;4.60;99.90;;;;;;5062418;28;20096;-83
2022/02/23 06:16:52;;;;;;;6.00;0.93;;;4.60;99.90;;;;;;5058444;28;20029;-83
2022/02/23 06:19:18;;;;;;;3.92;0.95;;;4.60;99.90;;;;;;5066999;28;20031;-83
2022/02/23 06:21:44;;;;;;;9.35;0.80;;;4.60;99.90;;;;;;5067006;28;20036;-83
2022/02/23 06:24:10;;;;;;;4.88;0.65;;;4.50;99.90;;;;;;5066890;28;20028;-83
2022/02/23 06:26:35;;;;;;;3.28;0.80;;;4.50;99.90;;;;;;5069108;28;20013;-83
2022/02/23 06:29:01;;;;;;;3.67;0.80;;;4.60;99.90;;;;;;5062059;28;20028;-84
2022/02/23 06:31:27;;;;;;;3.80;1.00;;;4.70;99.90;;;;;;5062362;28;20021;-84
2022/02/23 06:33:53;;;;;;;7.57;1.00;;;4.70;99.90;;;;;;5063979;28;20127;-82
2022/02/23 06:36:19;;;;;;;4.72;0.88;;;4.80;99.90;;;;;;5076257;28;20036;-82
2022/02/23 06:38:45;;;;;;;6.05;0.90;;;4.80;99.90;;;;;;5074947;28;20020;-81
2022/02/23 06:41:15;;;;;;;4.93;0.98;;;4.70;99.90;;;;;;5075054;28;20024;-83
2022/02/23 06:43:42;;;;;;;3.88;0.95;;;4.60;99.90;;;;;;5075054;28;20081;-83
2022/02/23 06:46:10;;;;;;;4.72;0.70;;;4.50;99.90;;;;;;5072465;28;20037;-82
2022/02/23 06:48:36;;;;;;;3.15;0.90;;;4.50;99.90;;;;;;5051422;28;20033;-84
2022/02/23 06:51:03;;;;;;;4.57;0.80;;;4.40;99.90;;;;;;5061099;28;20351;-84
2022/02/23 06:53:29;;;;;;;2.53;0.77;;;4.30;99.90;;;;;;5065420;28;20020;-84
2022/02/23 06:55:55;;;;;;;5.40;0.95;;;4.30;99.90;;;;;;5070163;28;20108;-84
2022/02/23 06:58:21;;;;;;;0.70;0.52;;;4.30;99.90;;;;;;5060563;28;20103;-84
2022/02/23 07:00:47;;;;;;;2.85;0.93;;;4.40;99.90;;;;;;5061680;28;20268;-84
2022/02/23 07:03:13;;;;;;;4.80;1.10;;;4.40;99.90;;;;;;5058402;28;20025;-84
2022/02/23 07:05:39;;;;;;;4.95;0.90;;;4.40;99.90;;;;;;5058488;28;20108;-82
2022/02/23 07:08:07;;;;;;;4.97;1.00;;;4.50;99.90;;;;;;5058965;28;20021;-84
2022/02/23 07:10:35;;;;;;;4.32;1.10;;;4.50;99.90;;;;;;5059998;28;20048;-84
2022/02/23 07:13:04;;;;;;;6.88;0.90;;;4.50;99.90;;;;;;5062627;28;20507;-83
2022/02/23 07:15:31;;;;;;;10.52;1.27;;;4.60;99.90;;;;;;5068672;28;20025;-83
2022/02/23 07:17:57;;;;;;;3.38;0.60;;;4.60;99.90;;;;;;5071218;28;20031;-81
2022/02/23 07:20:24;;;;;;;3.42;1.05;;;4.60;99.90;;;;;;5072290;28;20032;-82
2022/02/23 07:22:51;;;;;;;4.70;1.80;;;4.60;99.90;;;;;;5069253;28;20050;-82
2022/02/23 07:25:17;;;;;;;7.80;1.65;;;4.60;99.90;;;;;;5061485;28;20022;-83
2022/02/23 07:27:44;;;;;;;3.75;1.63;;;4.70;99.90;;;;;;5060219;28;20044;-83
2022/02/23 07:30:12;;;;;;;8.98;1.33;;;4.70;99.90;;;;;;5062612;28;20099;-83
2022/02/23 07:32:38;;;;;;;9.07;1.70;;;4.80;99.90;;;;;;5024848;28;20092;-84
2022/02/23 07:35:06;;;;;;;4.45;1.00;;;4.90;99.90;;;;;;5029260;28;20101;-83
2022/02/23 07:37:37;;;;;;;4.03;0.68;;;4.90;99.90;;;;;;5041134;28;20034;-83
2022/02/23 07:40:11;;;;;;;7.07;0.93;;;5.00;99.90;;;;;;5044358;28;20505;-83
2022/02/23 07:42:37;;;;;;;7.78;1.85;;;5.10;99.90;;;;;;5045555;28;20033;-83
2022/02/23 07:45:04;;;;;;;3.47;1.20;;;5.10;99.90;;;;;;5047145;28;20375;-81
2022/02/23 07:47:29;;;;;;;5.43;0.80;;;5.30;99.90;;;;;;5060592;28;20045;-81
2022/02/23 07:49:56;;;;;;;7.10;1.30;;;5.40;99.90;;;;;;5051297;28;20052;-81
2022/02/23 07:52:22;;;;;;;4.88;1.58;;;5.50;99.90;;;;;;5054222;28;20072;-82
2022/02/23 07:54:49;;;;;;;3.17;1.20;;;5.60;99.40;;;;;;5047610;28;20021;-83
2022/02/23 07:57:15;;;;;;;3.85;1.27;;;5.60;99.20;;;;;;5046043;28;20107;-82
2022/02/23 07:59:45;;;;;;;4.50;1.13;;;5.80;98.90;;;;;;5063109;28;20039;-84
2022/02/23 08:02:11;;;;;;;5.45;1.85;;;5.90;98.60;;;;;;5060895;28;20022;-82
2022/02/23 08:04:52;;;;;;;4.65;0.60;;;6.00;97.70;;;;;;5064841;28;20028;-82
2022/02/23 08:07:22;;;;;;;3.67;0.93;;;6.10;97.60;;;;;;5045902;28;20469;-82
2022/02/23 08:09:49;;;;;;;6.10;1.00;;;6.30;97.30;;;;;;5042926;28;20026;-84
2022/02/23 08:12:15;;;;;;;5.60;1.50;;;6.50;96.70;;;;;;5041768;28;20486;-83
2022/02/23 08:14:41;;;;;;;4.28;2.17;;;6.60;96.10;;;;;;5041484;28;20029;-83
2022/02/23 08:19:51;;;;;;;7.53;1.10;;;6.90;95.40;;;;;;5022209;28;20099;-83
2022/02/23 08:22:18;;;;;;;4.70;1.08;;;7.10;94.60;;;;;;5040895;28;20029;-82
2022/02/23 08:24:46;;;;;;;1.63;0.60;;;7.20;94.10;;;;;;5042503;28;20017;-83
2022/02/23 08:27:15;;;;;;;0.90;0.63;;;7.30;93.90;;;;;;5043100;28;20018;-83
2022/02/23 08:29:41;;;;;;;3.97;0.90;;;7.40;93.60;;;;;;5062706;28;20021;-83
2022/02/23 08:32:09;;;;;;;3.30;0.80;;;7.50;92.50;;;;;;5066169;28;20048;-83
2022/02/23 08:34:39;;;;;;;3.97;1.00;;;7.60;92.50;;;;;;5067264;28;20098;-83
2022/02/23 08:37:05;;;;;;;2.28;0.90;;;7.70;91.80;;;;;;5044579;28;20029;-83
2022/02/23 08:39:35;;;;;;;2.40;1.10;;;7.90;91.10;;;;;;5061976;28;20025;-82
2022/02/23 08:42:01;;;;;;;3.25;0.90;;;8.00;90.90;;;;;;5041376;28;20125;-82
2022/02/23 08:44:27;;;;;;;3.13;0.82;;;8.10;90.90;;;;;;5046481;28;20029;-82
2022/02/23 08:46:55;;;;;;;2.53;0.77;;;8.20;90.30;;;;;;5050495;28;20017;-82
2022/02/23 08:49:21;;;;;;;5.53;1.17;;;8.40;89.80;;;;;;5047750;28;20032;-82
2022/02/23 08:51:48;;;;;;;4.75;1.10;;;8.50;89.30;;;;;;5059593;28;20098;-82
2022/02/23 08:54:17;;;;;;;4.95;1.27;;;8.50;86.80;;;;;;5057732;28;20088;-82
2022/02/23 08:56:44;;;;;;;5.93;1.10;;;8.50;87.10;;;;;;5043622;28;20053;-82
2022/02/23 08:59:09;;;;;;;2.15;0.77;;;8.40;86.80;;;;;;5027865;28;20136;-82
2022/02/23 09:01:35;;;;;;;2.50;0.82;;;8.60;87.50;;;;;;5058195;28;20064;-81
2022/02/23 09:04:02;;;;;;;4.07;0.80;;;8.70;87.00;;;;;;5066595;28;20036;-82
2022/02/23 09:06:33;;;;;;;5.95;1.20;;;9.00;86.30;;;;;;5060941;28;20017;-82
2022/02/23 09:09:03;;;;;;;6.05;1.50;;;9.40;84.60;;;;;;5063364;28;20099;-82
2022/02/23 09:11:29;;;;;;;7.03;1.38;;;9.60;82.60;;;;;;5067181;28;20021;-81
2022/02/23 09:13:55;;;;;;;4.45;1.00;;;9.70;80.40;;;;;;5056812;28;20017;-81
2022/02/23 09:16:21;;;;;;;4.53;1.42;;;9.80;80.60;;;;;;5058466;28;20021;-83
2022/02/23 09:18:46;;;;;;;5.10;1.55;;;9.80;77.10;;;;;;5060072;28;20029;-84
2022/02/23 09:21:12;;;;;;;3.53;1.08;;;9.70;76.60;;;;;;5042326;28;20137;-83
2022/02/23 09:23:38;;;;;;;4.97;1.05;;;9.60;75.70;;;;;;5041216;28;20045;-83
2022/02/23 09:26:05;;;;;;;5.30;1.02;;;9.40;77.10;;;;;;5040706;28;20017;-84
2022/02/23 09:28:35;;;;;;;5.18;1.25;;;9.30;78.90;;;;;;5040186;28;20079;-80
2022/02/23 09:31:02;;;;;;;6.78;1.58;;;9.60;78.80;;;;;;5038374;28;20084;-80
2022/02/23 09:33:28;;;;;;;6.88;1.23;;;9.70;76.50;;;;;;5036278;28;20029;-79
2022/02/23 09:35:56;;;;;;;6.40;1.38;;;9.80;77.40;;;;;;5038645;28;20051;-81
2022/02/23 09:38:21;;;;;;;4.55;1.23;;;9.80;75.50;;;;;;5036480;28;20057;-79
2022/02/23 09:40:52;;;;;;;7.47;1.17;;;9.70;76.50;;;;;;5039769;28;20037;-81
2022/02/23 09:43:18;;;;;;;7.38;1.17;;;9.70;76.60;;;;;;5038250;28;20494;-80
2022/02/23 09:45:49;;;;;;;3.20;1.00;;;9.80;75.20;;;;;;5040334;28;20021;-81
2022/02/23 09:48:15;;;;;;;7.22;1.45;;;9.90;74.40;;;;;;5047160;28;20030;-80
2022/02/23 09:50:40;;;;;;;3.33;1.17;;;9.60;75.00;;;;;;5049593;28;20144;-80
2022/02/23 09:53:07;;;;;;;2.70;0.80;;;9.50;74.30;;;;;;5036959;28;20091;-80
2022/02/23 09:55:33;;;;;;;6.97;1.50;;;9.50;73.30;;;;;;5038035;28;20033;-81
2022/02/23 09:57:59;;;;;;;2.83;0.82;;;9.50;73.60;;;;;;5036576;28;20121;-81
2022/02/23 10:00:25;;;;;;;5.70;1.55;;;9.50;74.60;;;;;;5036805;28;20037;-79
2022/02/23 10:02:54;;;;;;;8.45;1.65;;;9.70;73.20;;;;;;5036724;28;20529;-80
2022/02/23 10:05:21;;;;;;;4.78;1.02;;;9.80;73.40;;;;;;5037443;28;20427;-80
2022/02/23 10:07:47;;;;;;;4.95;1.15;;;10.20;72.20;;;;;;5037073;28;20021;-80
2022/02/23 10:10:32;;;;;;;5.20;1.10;;;10.50;70.00;;;;;;5036254;28;20037;-81
2022/02/23 10:13:02;;;;;;;3.88;1.00;;;10.60;69.70;;;;;;5051827;28;20032;-82
2022/02/23 10:15:30;;;;;;;7.15;1.10;;;10.90;70.20;;;;;;5042968;28;20071;-82
2022/02/23 10:17:56;;;;;;;7.47;1.33;;;11.30;69.00;;;;;;5036882;28;20048;-79
2022/02/23 10:20:34;;;;;;;5.97;1.40;;;11.60;66.30;;;;;;5035389;28;20033;-80
2022/02/23 10:23:07;;;;;;;7.55;1.02;;;11.70;65.20;;;;;;5038312;28;20331;-81
2022/02/23 10:25:41;;;;;;;6.20;1.20;;;11.70;66.00;;;;;;5037097;28;20104;-81
2022/02/23 10:28:07;;;;;;;7.57;1.45;;;11.70;64.50;;;;;;5039679;28;20022;-84
2022/02/23 10:30:33;;;;;;;8.25;1.90;;;11.40;65.00;;;;;;5044385;28;20060;-83
2022/02/23 10:33:24;;;;;;;3.30;1.00;;;10.90;63.80;;;;;;5041148;28;20021;-84
2022/02/23 10:36:05;;;;;;;3.08;0.80;;;10.50;66.40;;;;;;5022924;28;20387;-84
2022/02/23 10:38:37;;;;;;;2.42;0.57;;;10.50;67.60;;;;;;5022129;28;20034;-85
2022/02/23 10:41:06;;;;;;;5.35;1.20;;;10.90;67.50;;;;;;5046579;28;20029;-84
2022/02/23 10:43:40;;;;;;;3.35;1.05;;;11.30;65.70;;;;;;5065337;28;20028;-85
2022/02/23 10:46:07;;;;;;;6.30;1.40;;;11.60;60.10;;;;;;5052274;28;20018;-86
2022/02/23 10:48:43;;;;;;;2.38;0.93;;;11.60;59.80;;;;;;5047387;28;20101;-84
2022/02/23 10:51:15;;;;;;;3.70;1.45;;;11.60;60.80;;;;;;5040556;28;20025;-84
2022/02/23 10:53:41;;;;;;;8.27;1.90;;;11.70;61.00;;;;;;5040735;28;20022;-84
2022/02/23 10:56:29;;;;;;;7.45;1.25;;;11.80;61.40;;;;;;5040285;28;20056;-85
2022/02/23 10:59:00;;;;;;;5.05;1.20;;;11.80;60.90;;;;;;5041031;28;20335;-85
2022/02/23 11:01:27;;;;;;;6.53;1.67;;;11.70;61.50;;;;;;5040716;28;20104;-84
2022/02/23 11:03:52;;;;;;;5.07;1.35;;;11.70;62.00;;;;;;5040501;28;20044;-85
2022/02/23 11:06:19;;;;;;;6.18;1.58;;;11.60;61.50;;;;;;5038567;28;20053;-85
2022/02/23 11:08:49;;;;;;;6.00;1.05;;;11.60;60.50;;;;;;5050424;28;20437;-85
2022/02/23 11:11:19;;;;;;;3.20;1.02;;;11.50;61.20;;;;;;5047413;28;20130;-85
2022/02/23 11:13:45;;;;;;;3.35;1.17;;;11.50;62.40;;;;;;5060591;28;20430;-85
2022/02/23 11:16:13;;;;;;;8.38;1.30;;;11.60;62.00;;;;;;5074980;28;20040;-84
2022/02/23 11:18:41;;;;;;;5.05;1.80;;;11.70;61.70;;;;;;5072388;28;20146;-85
2022/02/23 11:21:10;;;;;;;7.28;1.33;;;11.80;61.60;;;;;;5064403;28;20086;-85
2022/02/23 11:23:37;;;;;;;3.30;0.90;;;11.70;60.90;;;;;;5062929;28;20020;-86
2022/02/23 11:26:05;;;;;;;4.93;1.10;;;11.60;61.30;;;;;;5040753;28;20033;-85
2022/02/23 11:28:34;;;;;;;8.15;1.30;;;11.60;62.40;;;;;;5040598;28;20049;-85
2022/02/23 11:31:11;;;;;;;5.18;1.30;;;11.70;61.70;;;;;;5048584;28;20029;-84
2022/02/23 11:33:56;;;;;;;3.53;1.13;;;11.70;61.40;;;;;;5043292;28;20045;-85
2022/02/23 11:36:42;;;;;;;4.68;1.05;;;11.60;61.70;;;;;;5039340;28;20164;-84
2022/02/23 11:39:18;;;;;;;5.78;1.10;;;11.50;61.70;;;;;;5040754;28;20081;-84
2022/02/23 11:41:52;;;;;;;2.38;0.88;;;11.40;63.00;;;;;;5044890;28;20114;-85
2022/02/23 11:44:26;;;;;;;4.65;0.90;;;11.30;63.80;;;;;;5040954;28;20018;-84
2022/02/23 11:47:07;;;;;;;5.40;1.00;;;11.40;63.10;;;;;;5037333;28;20021;-84
2022/02/23 11:49:33;;;;;;;4.20;1.10;;;11.60;63.40;;;;;;5045431;28;20072;-84
2022/02/23 11:52:12;;;;;;;2.85;1.10;;;11.80;63.00;;;;;;5051526;28;20081;-85
2022/02/23 11:54:58;;;;;;;2.90;1.27;;;11.70;62.30;;;;;;5052075;28;20092;-85
2022/02/23 11:57:37;;;;;;;7.22;1.30;;;11.80;62.70;;;;;;5051661;28;20052;-84
2022/02/23 12:00:06;;;;;;;5.10;1.10;;;12.10;61.60;;;;;;5047785;28;20022;-84
2022/02/23 12:02:32;;;;;;;4.60;1.23;;;12.10;61.30;;;;;;5054790;28;20060;-84
2022/02/23 12:04:59;;;;;;;6.07;1.27;;;12.10;60.20;;;;;;5043942;28;20022;-84
2022/02/23 12:07:26;;;;;;;4.57;1.40;;;12.10;60.60;;;;;;5043919;28;20132;-84
2022/02/23 12:09:57;;;;;;;5.28;1.20;;;12.10;59.90;;;;;;5045170;28;20018;-84
2022/02/23 12:12:37;;;;;;;4.53;1.30;;;12.20;60.90;;;;;;5061015;28;20029;-84
2022/02/23 12:15:08;;;;;;;6.00;0.98;;;12.30;61.00;;;;;;5060067;28;20282;-84
2022/02/23 12:17:43;;;;;;;3.88;1.00;;;12.40;61.10;;;;;;5059064;28;20060;-85
2022/02/23 12:20:29;;;;;;;2.35;0.98;;;12.40;60.90;;;;;;5058245;28;20032;-85
2022/02/23 12:23:18;;;;;;;4.63;1.30;;;12.60;60.90;;;;;;5063097;28;20464;-85
2022/02/23 12:25:46;;;;;;;4.97;1.42;;;12.60;58.70;;;;;;5067071;28;20021;-84
2022/02/23 12:28:23;;;;;;;3.58;1.40;;;12.60;59.40;;;;;;5058454;28;20091;-85
2022/02/23 12:31:03;;;;;;;6.28;1.40;;;12.70;59.40;;;;;;5065149;28;20025;-84
2022/02/23 12:33:31;;;;;;;6.00;1.20;;;13.00;58.70;;;;;;5067426;28;20039;-84
2022/02/23 12:36:00;;;;;;;4.10;1.23;;;13.40;56.60;;;;;;5066163;28;20249;-84
2022/02/23 12:38:32;;;;;;;5.43;1.30;;;13.60;56.20;;;;;;5027068;28;20026;-84
2022/02/23 12:40:59;;;;;;;;;;;13.20;57.00;;;;;;5042782;28;20021;-85
2022/02/23 12:43:25;;;;;;;5.75;1.63;;;13.20;56.80;;;;;;5056324;28;19909;-84
2022/02/23 12:45:54;;;;;;;2.58;0.82;;;13.40;55.20;;;;;;5048813;28;20032;-84
2022/02/23 12:48:31;;;;;;;2.75;1.00;;;13.40;56.10;;;;;;5049103;28;20434;-84
2022/02/23 12:51:00;;;;;;;1.98;1.08;;;13.50;56.80;;;;;;5047705;28;20045;-85
2022/02/23 12:53:42;;;;;;;3.17;0.90;;;13.50;57.60;;;;;;5046208;28;20025;-84
2022/02/23 12:56:24;;;;;;;5.43;1.13;;;13.50;55.80;;;;;;5041844;28;20502;-83
2022/02/23 12:58:59;;;;;;;2.72;0.90;;;13.20;56.40;;;;;;5040148;28;20033;-82
2022/02/23 13:01:28;;;;;;;1.90;0.75;;;13.20;56.70;;;;;;5041032;28;20048;-83